createdAt,value
2019-03-22T12:09:48.865Z,13.73
2019-03-22T12:12:35.481Z,8.50
2019-03-22T12:15:22.452Z,11.37
2019-03-22T12:18:10.188Z,9.93
2019-03-22T12:21:00.069Z,9.53
2019-03-22T12:23:46.241Z,13.47
2019-03-22T12:26:33.166Z,7.50
2019-03-22T12:29:19.884Z,7.70
2019-03-22T12:32:06.336Z,6.67
2019-03-22T12:34:52.604Z,6.83
2019-03-22T12:37:42.709Z,4.73
2019-03-22T12:40:28.914Z,6.23
2019-03-22T12:43:15.057Z,7.67
2019-03-22T12:46:01.304Z,6.87
2019-03-22T12:48:47.361Z,7.87
2019-03-22T12:51:33.494Z,5.43
2019-03-22T12:54:24.169Z,4.10
2019-03-22T12:57:10.561Z,4.37
2019-03-22T12:59:57.057Z,4.17
2019-03-22T13:02:43.761Z,6.30
2019-03-22T13:05:30.070Z,5.93
2019-03-22T13:08:16.190Z,4.47
2019-03-22T13:11:02.481Z,4.40
2019-03-22T13:13:48.473Z,4.13
2019-03-22T13:16:35.028Z,5.67
2019-03-22T13:19:21.762Z,6.83
2019-03-22T13:22:07.837Z,4.97
2019-03-22T13:24:53.884Z,4.37
2019-03-22T13:27:40.648Z,3.57
2019-03-22T13:30:37.393Z,5.53
2019-03-22T13:33:23.690Z,4.47
2019-03-22T13:36:10.199Z,4.27
2019-03-22T13:38:56.797Z,4.60
2019-03-22T13:41:43.343Z,4.07
2019-03-22T13:44:29.545Z,4.17
2019-03-22T13:47:16.054Z,5.57
2019-03-22T13:50:02.699Z,4.60
2019-03-22T13:52:49.011Z,5.07
2019-03-22T13:55:35.595Z,6.23
2019-03-22T13:58:21.724Z,4.63
2019-03-22T14:01:12.236Z,5.77
2019-03-22T14:03:58.628Z,5.90
2019-03-22T14:06:45.557Z,6.57
2019-03-22T14:09:36.108Z,7.67
2019-03-22T14:12:23.439Z,7.57
2019-03-22T14:15:13.293Z,5.93
2019-03-22T14:18:01.216Z,7.97
2019-03-22T14:20:50.005Z,7.43
2019-03-22T14:23:37.874Z,7.87
2019-03-22T14:26:24.683Z,6.97
2019-03-22T14:29:11.140Z,9.47
2019-03-22T14:31:58.532Z,7.67
2019-03-22T14:34:45.261Z,8.60
2019-03-22T14:37:33.855Z,7.17
2019-03-22T14:40:20.972Z,7.63
2019-03-22T14:43:07.253Z,8.73
2019-03-22T14:45:53.577Z,8.97
2019-03-22T14:48:40.008Z,9.70
2019-03-22T14:51:27.892Z,10.53
2019-03-22T14:54:14.221Z,9.83
2019-03-22T14:57:00.777Z,10.90
2019-03-22T14:59:47.064Z,13.40
2019-03-22T15:02:33.744Z,10.53
2019-03-22T15:05:21.030Z,10.87
2019-03-22T15:08:07.354Z,10.67
2019-03-22T15:10:53.543Z,12.10
2019-03-22T15:13:58.537Z,11.10
2019-03-22T15:17:07.432Z,13.63
2019-03-22T15:20:16.170Z,13.87
2019-03-22T15:23:17.424Z,10.53
2019-03-22T15:26:32.409Z,11.47
2019-03-22T15:29:37.561Z,12.70
2019-03-22T15:32:42.713Z,10.20
2019-03-22T15:35:47.327Z,10.57
2019-03-22T15:38:52.508Z,9.10
2019-03-22T15:41:39.317Z,11.83
2019-03-22T15:44:26.854Z,15.13
2019-03-22T15:47:14.736Z,14.53
2019-03-22T15:50:01.419Z,14.83
2019-03-22T15:52:47.482Z,14.53
2019-03-22T15:55:34.378Z,12.10
2019-03-22T15:58:20.850Z,12.30
2019-03-22T16:01:07.189Z,16.27
2019-03-22T16:03:53.982Z,16.30
2019-03-22T16:06:40.810Z,14.73
2019-03-22T16:09:31.092Z,17.47
2019-03-22T16:12:17.677Z,16.97
2019-03-22T16:15:04.950Z,15.37
2019-03-22T16:17:50.985Z,17.73
2019-03-22T16:20:37.485Z,14.40
2019-03-22T16:23:23.791Z,15.40
2019-03-22T16:26:09.945Z,15.47
2019-03-22T16:28:56.205Z,16.40
2019-03-22T16:31:42.733Z,16.43
2019-03-22T16:34:29.570Z,19.40
2019-03-22T16:37:15.870Z,15.07
2019-03-22T16:40:02.162Z,17.23
2019-03-22T16:42:49.077Z,17.13
2019-03-22T16:45:40.005Z,17.07
2019-03-22T16:48:26.056Z,15.20
2019-03-22T16:51:12.857Z,16.17
2019-03-22T16:53:59.018Z,17.60
2019-03-22T16:56:45.445Z,15.80
2019-03-22T16:59:31.718Z,18.23
2019-03-22T17:02:17.935Z,15.97
2019-03-22T17:05:04.526Z,13.00
2019-03-22T17:07:51.166Z,14.43
2019-03-22T17:10:37.290Z,11.63
2019-03-22T17:13:35.439Z,12.80
2019-03-22T17:16:35.222Z,15.17
2019-03-22T17:19:22.167Z,9.70
2019-03-22T17:22:08.783Z,8.27
2019-03-22T17:24:58.445Z,10.17
2019-03-22T17:27:44.966Z,11.00
2019-03-22T17:30:31.214Z,12.87
2019-03-22T17:33:17.722Z,9.50
2019-03-22T17:36:06.875Z,10.03
2019-03-22T17:39:03.479Z,10.07
2019-03-22T17:41:57.559Z,12.27
2019-03-22T17:44:43.979Z,13.10
2019-03-22T17:47:31.455Z,10.57
2019-03-22T17:50:26.426Z,9.67
2019-03-22T17:53:13.211Z,11.13
2019-03-22T17:55:59.206Z,13.20
2019-03-22T17:58:46.111Z,13.73
2019-03-22T18:01:50.942Z,14.20
2019-03-22T18:05:04.118Z,12.10
2019-03-22T18:07:52.863Z,10.93
2019-03-22T18:10:39.815Z,8.97
2019-03-22T18:13:25.862Z,9.80
2019-03-22T18:16:12.060Z,13.60
2019-03-22T18:18:58.563Z,12.07
2019-03-22T18:21:45.207Z,14.67
2019-03-22T18:24:31.371Z,10.00
2019-03-22T18:27:17.739Z,14.87
2019-03-22T18:30:05.693Z,15.77
2019-03-22T18:32:51.932Z,19.33
2019-03-22T18:35:37.984Z,15.00
2019-03-22T18:38:24.567Z,20.17
2019-03-22T18:41:11.391Z,17.43
2019-03-22T18:43:57.737Z,23.27
2019-03-22T18:46:44.079Z,21.60
2019-03-22T18:49:30.382Z,26.93
2019-03-22T18:52:16.376Z,21.43
2019-03-22T18:55:03.442Z,20.43
2019-03-22T18:57:49.607Z,20.20
2019-03-22T19:00:38.284Z,19.10
2019-03-22T19:03:24.670Z,21.23
2019-03-22T19:06:11.344Z,21.67
2019-03-22T19:08:57.614Z,20.27
2019-03-22T19:11:43.856Z,19.87
2019-03-22T19:14:30.287Z,18.37
2019-03-22T19:17:16.772Z,23.10
2019-03-22T19:20:06.178Z,22.23
2019-03-22T19:22:52.628Z,20.30
2019-03-22T19:25:39.804Z,21.77
2019-03-22T19:28:26.323Z,21.37
2019-03-22T19:31:13.412Z,22.57
2019-03-22T19:33:59.580Z,20.73
2019-03-22T19:36:46.442Z,18.70
2019-03-22T19:39:32.565Z,18.73
2019-03-22T19:42:18.548Z,18.03
2019-03-22T19:45:06.814Z,15.87
2019-03-22T19:47:52.892Z,19.67
2019-03-22T19:50:39.094Z,13.50
2019-03-22T19:53:26.933Z,12.77
2019-03-22T19:56:15.640Z,17.97
2019-03-22T19:59:02.079Z,17.10
2019-03-22T20:01:48.864Z,13.37
2019-03-22T20:04:35.138Z,15.00
2019-03-22T20:07:26.868Z,11.00
2019-03-22T20:10:10.403Z,13.00
2019-03-22T20:12:56.522Z,11.50
2019-03-22T20:15:42.820Z,14.37
2019-03-22T20:18:29.385Z,14.80
2019-03-22T20:21:15.698Z,12.03
2019-03-22T20:24:02.077Z,15.97
2019-03-22T20:26:48.788Z,13.20
2019-03-22T20:29:39.963Z,11.50
2019-03-22T20:32:25.395Z,13.53
2019-03-22T20:35:16.807Z,11.90
2019-03-22T20:38:01.304Z,14.50
2019-03-22T20:40:47.466Z,12.77
2019-03-22T20:43:34.191Z,11.50
2019-03-22T20:46:20.449Z,10.50
2019-03-22T20:49:06.501Z,7.83
2019-03-22T20:51:53.391Z,11.43
2019-03-22T20:54:40.956Z,9.00
2019-03-22T20:57:26.924Z,10.80
2019-03-22T21:00:17.162Z,8.77
2019-03-22T21:03:03.519Z,8.77
2019-03-22T21:05:51.059Z,6.07
2019-03-22T21:08:38.340Z,9.17
2019-03-22T21:11:24.829Z,8.37
2019-03-22T21:14:11.005Z,9.77
2019-03-22T21:16:57.576Z,7.10
2019-03-22T21:19:43.553Z,5.93
2019-03-22T21:22:30.851Z,6.67
2019-03-22T21:25:17.099Z,8.03
2019-03-22T21:28:03.984Z,5.47
2019-03-22T21:30:50.844Z,5.70
2019-03-22T21:33:37.181Z,4.90
2019-03-22T21:36:23.389Z,6.50
2019-03-22T21:39:17.286Z,5.87
2019-03-22T21:42:12.388Z,4.07
2019-03-22T21:44:59.088Z,6.50
2019-03-22T21:47:45.165Z,6.13
2019-03-22T21:50:31.435Z,5.00
2019-03-22T21:53:18.093Z,6.43
2019-03-22T21:56:04.496Z,5.23
2019-03-22T21:58:51.247Z,4.97
2019-03-22T22:01:37.481Z,5.67
2019-03-22T22:04:23.769Z,9.73
2019-03-22T22:07:10.040Z,7.03
2019-03-22T22:09:56.375Z,4.23
2019-03-22T22:12:42.971Z,6.17
2019-03-22T22:15:29.805Z,6.00
2019-03-22T22:18:16.665Z,5.23
2019-03-22T22:21:03.237Z,4.43
2019-03-22T22:23:49.383Z,6.00
2019-03-22T22:26:35.630Z,6.70
2019-03-22T22:29:23.142Z,4.63
2019-03-22T22:32:09.669Z,4.90
2019-03-22T22:34:56.114Z,4.77
2019-03-22T22:37:42.368Z,4.47
2019-03-22T22:40:28.824Z,4.70
2019-03-22T22:43:14.822Z,4.43
2019-03-22T22:46:01.187Z,5.80
2019-03-22T22:48:47.245Z,4.37
2019-03-22T22:51:33.584Z,4.50
2019-03-22T22:54:20.088Z,5.77
2019-03-22T22:57:06.305Z,6.40
2019-03-22T22:59:52.518Z,5.77
2019-03-22T23:02:38.813Z,5.13
2019-03-22T23:05:24.971Z,8.37
2019-03-22T23:08:11.144Z,6.30
2019-03-22T23:10:57.991Z,8.90
2019-03-22T23:13:44.247Z,9.87
2019-03-22T23:16:30.763Z,10.53
2019-03-22T23:19:17.335Z,11.07
2019-03-22T23:22:04.324Z,9.87
2019-03-22T23:24:50.989Z,10.60
2019-03-22T23:27:38.441Z,9.97
2019-03-22T23:30:24.773Z,7.77
2019-03-22T23:33:11.115Z,8.00
2019-03-22T23:35:58.042Z,7.23
2019-03-22T23:38:44.686Z,8.23
2019-03-22T23:41:30.789Z,7.67
2019-03-22T23:44:17.469Z,7.23
2019-03-22T23:47:04.027Z,6.57
2019-03-22T23:49:50.679Z,8.23
2019-03-22T23:52:37.010Z,6.80
2019-03-22T23:55:23.369Z,6.37
2019-03-22T23:58:10.054Z,7.43
